Flight Track Log - Related Links

Times and Time Zones

All times are in EDT time to prevent confusion due to time zone crossing. See the PDT4373 flight status page for this flight to view local times or setup timezone preferences in your user account.

Time Position Orientation Groundspeed Altitude Reporting Facility
EDT Latitude Longitude Course Direction KTS MPH feet Rate Location/Type
Sun 09:26:58 AM 39.9000 -75.2333 351° North 123 142 600  Level Philadelphia TRACON
Sun 09:27:53 AM 39.9167 -75.2500 323° Northwest 124 143 2,100 1,357 Climbing Philadelphia TRACON
Sun 09:28:53 AM 39.9667 -75.2500 360° North 133 153 3,200 1,000 Climbing Philadelphia TRACON
Sun 09:29:00 AM 40.0834 -75.3055 349° North  Level Estimated
Sun 09:29:47 AM 40.0000 -75.2500 360° North 149 171 4,000  Level Philadelphia TRACON
Sun 09:30:00 AM 40.1548 -75.3205 351° North  Level FlightAware Approximate
Sun 09:30:53 AM 40.0500 -75.2667 346° North 196 226 4,000  Level Philadelphia TRACON
Sun 09:31:00 AM 40.2261 -75.3357 351° North  Level FlightAware Approximate
Sun 09:31:53 AM 40.1000 -75.2667 360° North 202 232 4,000  Level Philadelphia TRACON
Sun 09:32:00 AM 40.2975 -75.3508 351° North  Level FlightAware Approximate
Sun 09:32:47 AM 40.1500 -75.2833 346° North 203 234 4,000  Level Philadelphia TRACON
Sun 09:33:47 AM 40.2000 -75.3167 333° Northwest 205 236 4,000  Level Philadelphia TRACON
Sun 09:34:53 AM 40.2667 -75.3333 349° North 200 230 4,000  Level Philadelphia TRACON
Sun 09:36:00 AM 40.3457 -75.3549 348° North  Level FlightAware Approximate
Sun 09:43:00 AM 40.8447 -75.4500 North  Level FlightAware Approximate
Sun 09:44:00 AM 40.9170 -75.4500 North  Level FlightAware Approximate
Sun 09:45:00 AM 40.9893 -75.4500 North  Level FlightAware Approximate
Sun 09:46:00 AM 41.0616 -75.4522 357° North  Level FlightAware Approximate
Sun 09:47:00 AM 41.1337 -75.4577 357° North  Level FlightAware Approximate
Sun 09:48:00 AM 41.2059 -75.4633 357° North  Level FlightAware Approximate
Sun 09:49:00 AM 41.2781 -75.4667 North  Level FlightAware Approximate
Sun 09:50:00 AM 41.3504 -75.4667 North  Level FlightAware Approximate
Sun 09:51:00 AM 41.4227 -75.4667 North  Level FlightAware Approximate
Sun 09:52:00 AM 41.4893 -75.4893 323° Northwest  Level FlightAware Approximate
Sun 09:53:00 AM 41.5473 -75.5470 323° Northwest  Level FlightAware Approximate
Sun 09:54:00 AM 41.6052 -75.6049 323° Northwest  Level FlightAware Approximate
Sun 09:55:00 AM 41.6630 -75.6629 323° Northwest  Level FlightAware Approximate
Sun 09:56:00 AM 41.7210 -75.7207 326° Northwest  Level FlightAware Approximate
Sun 09:57:00 AM 41.7806 -75.7755 326° Northwest  Level FlightAware Approximate
Sun 09:58:00 AM 41.8402 -75.8305 326° Northwest  Level FlightAware Approximate
Sun 09:59:00 AM 41.8997 -75.8855 325° Northwest  Level FlightAware Approximate
Sun 10:00:00 AM 41.9586 -75.9419 323° Northwest  Level FlightAware Approximate
Sun 10:01:00 AM 42.0166 -75.9999 323° Northwest  Level FlightAware Approximate
Sun 10:02:00 AM 42.0746 -76.0579 323° Northwest  Level FlightAware Approximate
Sun 10:03:00 AM 42.1327 -76.1160 323° Northwest  Level FlightAware Approximate
Sun 10:04:00 AM 42.1692 -76.0771 62° Northeast  Level FlightAware Approximate
Sun 10:05:00 AM 42.2000 -75.9900 90° East  Level FlightAware Approximate
Sun 10:06:00 AM 42.2000 -75.9667 90° East  Level FlightAware Approximate
Sun 10:07:00 AM 42.2084 -75.9796 90° East  Level Estimated
Sun 10:08:00 AM 42.2084 -75.9796 90° East  Level Estimated
Sun 10:09:00 AM 42.2084 -75.9796 90° East  Level Estimated
Sun 10:10:00 AM 42.2084 -75.9796 90° East  Level Estimated
Sun 10:11:00 AM 42.2084 -75.9796 90° East  Level Estimated
Sun 10:12:00 AM 42.2084 -75.9796 90° East  Level Estimated
Sun 10:13:00 AM 42.2084 -75.9796 90° East  Level Estimated

Login

Don't have an account? Register now (free) for customized features, flight alerts, and more!